Barbarossa — ZDFA4 — position and weather

sailwx.info

Track history (hours):
 
Tides and Currents Weather Stations Pressure Air Temp Water Temp Dewpoint Dewpoint Depression Visibility Wind Speed Wind Dir Waves Ship Positions

Barbarossa

Last reported at 2016-Jun-30 17:30 UTC. Time now 2016-Jun-30 17:49 UTC.
Position N 37°55' W 009°49'.

Length 83 m; draft 4.4 m.

Type: Cargo ship. MMSI: 236029000.

Date/timePositionNaut miles runAvg speedWind from/ knotsBaromVisibWave heightAir tempDewpointWater temp
2016-Jun-30 17:30N 37°55' W 009°49'1010.2
2016-Jun-30 16:33N 37°46' W 009°49'1010.1
2016-Jun-30 15:33N 37°36' W 009°49'1010.1
2016-Jun-30 14:33N 37°26' W 009°49'1010.2
2016-Jun-30 13:31N 37°15' W 009°49'10 9.9
2016-Jun-30 12:33N 37°05' W 009°49'28 9.3
2016-Jun-30 09:31N 36°37' W 009°48'8 8.7
2016-Jun-30 08:33N 36°29' W 009°48'420 8.6
2016-Jun-28 07:31N 29°44' W 011°60'1510.5
2016-Jun-28 06:08N 29°32' W 012°09'2610.2
2016-Jun-28 03:33N 29°09' W 012°25'10 9.8
2016-Jun-28 02:33N 29°01' W 012°31'13 9.6
2016-Jun-28 01:14N 28°51' W 012°39'9 9.7
2016-Jun-28 00:18N 28°43' W 012°44'7 9.4
2016-Jun-27 23:33N 28°37' W 012°48'20 9.5
2016-Jun-27 21:28N 28°20' W 013°00'10 9.7
2016-Jun-27 20:25N 28°12' W 013°07'2210.1
2016-Jun-27 18:15N 27°53' W 013°20'7 9.8
2016-Jun-27 17:33N 27°47' W 013°24'10 9.8
2016-Jun-27 16:31N 27°39' W 013°30'1110.4
2016-Jun-27 15:30N 27°30' W 013°36'1010.5
2016-Jun-27 14:33N 27°20' W 013°34'16 0.4
2016-Jun-25 16:22N 27°06' W 013°26'0 0.0
2016-Jun-25 15:28N 27°06' W 013°26'0 0.1
2016-Jun-25 14:33N 27°05' W 013°26'0 0.0
2016-Jun-25 10:25N 27°05' W 013°26'0 0.0
2016-Jun-25 09:31N 27°05' W 013°26'0 0.0
2016-Jun-25 08:31N 27°05' W 013°26'0 0.0
2016-Jun-25 07:33N 27°05' W 013°26'0 0.0
2016-Jun-25 06:27N 27°05' W 013°26'0 0.0
2016-Jun-25 05:32N 27°05' W 013°26'0 0.0
2016-Jun-25 04:26N 27°05' W 013°26'0 0.0
2016-Jun-25 03:28N 27°05' W 013°26'0 0.0
2016-Jun-25 02:31N 27°05' W 013°26'0 0.0
2016-Jun-25 01:31N 27°05' W 013°26'0 0.0
2016-Jun-25 00:33N 27°05' W 013°26'0 0.0
2016-Jun-24 23:33N 27°05' W 013°26'0 0.0
2016-Jun-24 22:32N 27°05' W 013°26'0 0.0
2016-Jun-24 21:20N 27°05' W 013°26'0 0.0
2016-Jun-24 20:25N 27°05' W 013°26'143 5.7
2016-Jun-23 19:05N 29°18' W 012°25'12911.1
2016-Jun-23 07:32N 31°10' W 011°11'2110.8
2016-Jun-23 05:33N 31°29' W 010°58'1110.7
2016-Jun-23 04:33N 31°38' W 010°52'1410.8
2016-Jun-23 03:17N 31°50' W 010°44'911.0
2016-Jun-23 02:30N 31°57' W 010°39'1110.9
2016-Jun-23 01:32N 32°06' W 010°33'3710.9
2016-Jun-22 22:09N 32°37' W 010°10'810.9
2016-Jun-22 21:26N 32°43' W 010°04'2211.3
2016-Jun-22 19:32N 32°57' W 009°44'3811.6
2016-Jun-22 16:14N 33°25' W 009°13'811.3
2016-Jun-22 15:33N 33°29' W 009°05'1711.4
2016-Jun-22 14:03N 33°42' W 008°51'6010.9
2016-Jun-22 08:30N 34°22' W 007°56'1111.1
2016-Jun-22 07:32N 34°30' W 007°49'1111.0
2016-Jun-22 06:32N 34°38' W 007°39'1110.8
2016-Jun-22 05:32N 34°45' W 007°29'1110.7
2016-Jun-22 04:33N 34°53' W 007°20'1210.5
2016-Jun-22 03:24N 35°01' W 007°10'10010.1
2016-Jun-21 17:33N 35°59' W 005°30'9 8.9
2016-Jun-21 16:33N 35°57' W 005°19'3 2.8
2016-Jun-21 15:24N 35°54' W 005°18'0 0.0
2016-Jun-21 14:33N 35°54' W 005°18'0 0.0
2016-Jun-21 13:32N 35°54' W 005°18'0 0.0
2016-Jun-21 12:32N 35°54' W 005°18'0 0.0
2016-Jun-21 11:31N 35°54' W 005°18'0 0.0
2016-Jun-21 10:33N 35°54' W 005°18'3 3.4
2016-Jun-21 09:33N 35°56' W 005°16'136 9.7
2016-Jun-20 19:31N 36°23' W 002°30'1210.2
2016-Jun-20 18:22N 36°25' W 002°16'  
Track history (hours):
 
Tides and Currents Weather Stations Pressure Air Temp Water Temp Dewpoint Dewpoint Depression Visibility Wind Speed Wind Dir Waves Ship Positions

Barbarossa

Last reported at 2016-Jun-30 17:30 UTC. Time now 2016-Jun-30 17:49 UTC.
Position N 37°55' W 009°49'.

Length 83 m; draft 4.4 m.

Type: Cargo ship. MMSI: 236029000.

Date/timePositionNaut miles runAvg speedWind from/ knotsBaromVisibWave heightAir tempDewpointWater temp
2016-Jun-30 17:30N 37°55' W 009°49'1010.2
2016-Jun-30 16:33N 37°46' W 009°49'1010.1
2016-Jun-30 15:33N 37°36' W 009°49'1010.1
2016-Jun-30 14:33N 37°26' W 009°49'1010.2
2016-Jun-30 13:31N 37°15' W 009°49'10 9.9
2016-Jun-30 12:33N 37°05' W 009°49'28 9.3
2016-Jun-30 09:31N 36°37' W 009°48'8 8.7
2016-Jun-30 08:33N 36°29' W 009°48'420 8.6
2016-Jun-28 07:31N 29°44' W 011°60'1510.5
2016-Jun-28 06:08N 29°32' W 012°09'2610.2
2016-Jun-28 03:33N 29°09' W 012°25'10 9.8
2016-Jun-28 02:33N 29°01' W 012°31'13 9.6
2016-Jun-28 01:14N 28°51' W 012°39'9 9.7
2016-Jun-28 00:18N 28°43' W 012°44'7 9.4
2016-Jun-27 23:33N 28°37' W 012°48'20 9.5
2016-Jun-27 21:28N 28°20' W 013°00'10 9.7
2016-Jun-27 20:25N 28°12' W 013°07'2210.1
2016-Jun-27 18:15N 27°53' W 013°20'7 9.8
2016-Jun-27 17:33N 27°47' W 013°24'10 9.8
2016-Jun-27 16:31N 27°39' W 013°30'1110.4
2016-Jun-27 15:30N 27°30' W 013°36'1010.5
2016-Jun-27 14:33N 27°20' W 013°34'16 0.4
2016-Jun-25 16:22N 27°06' W 013°26'0 0.0
2016-Jun-25 15:28N 27°06' W 013°26'0 0.1
2016-Jun-25 14:33N 27°05' W 013°26'0 0.0
2016-Jun-25 10:25N 27°05' W 013°26'0 0.0
2016-Jun-25 09:31N 27°05' W 013°26'0 0.0
2016-Jun-25 08:31N 27°05' W 013°26'0 0.0
2016-Jun-25 07:33N 27°05' W 013°26'0 0.0
2016-Jun-25 06:27N 27°05' W 013°26'0 0.0
2016-Jun-25 05:32N 27°05' W 013°26'0 0.0
2016-Jun-25 04:26N 27°05' W 013°26'0 0.0
2016-Jun-25 03:28N 27°05' W 013°26'0 0.0
2016-Jun-25 02:31N 27°05' W 013°26'0 0.0
2016-Jun-25 01:31N 27°05' W 013°26'0 0.0
2016-Jun-25 00:33N 27°05' W 013°26'0 0.0
2016-Jun-24 23:33N 27°05' W 013°26'0 0.0
2016-Jun-24 22:32N 27°05' W 013°26'0 0.0
2016-Jun-24 21:20N 27°05' W 013°26'0 0.0
2016-Jun-24 20:25N 27°05' W 013°26'143 5.7
2016-Jun-23 19:05N 29°18' W 012°25'12911.1
2016-Jun-23 07:32N 31°10' W 011°11'2110.8
2016-Jun-23 05:33N 31°29' W 010°58'1110.7
2016-Jun-23 04:33N 31°38' W 010°52'1410.8
2016-Jun-23 03:17N 31°50' W 010°44'911.0
2016-Jun-23 02:30N 31°57' W 010°39'1110.9
2016-Jun-23 01:32N 32°06' W 010°33'3710.9
2016-Jun-22 22:09N 32°37' W 010°10'810.9
2016-Jun-22 21:26N 32°43' W 010°04'2211.3
2016-Jun-22 19:32N 32°57' W 009°44'3811.6
2016-Jun-22 16:14N 33°25' W 009°13'811.3
2016-Jun-22 15:33N 33°29' W 009°05'1711.4
2016-Jun-22 14:03N 33°42' W 008°51'6010.9
2016-Jun-22 08:30N 34°22' W 007°56'1111.1
2016-Jun-22 07:32N 34°30' W 007°49'1111.0
2016-Jun-22 06:32N 34°38' W 007°39'1110.8
2016-Jun-22 05:32N 34°45' W 007°29'1110.7
2016-Jun-22 04:33N 34°53' W 007°20'1210.5
2016-Jun-22 03:24N 35°01' W 007°10'10010.1
2016-Jun-21 17:33N 35°59' W 005°30'9 8.9
2016-Jun-21 16:33N 35°57' W 005°19'3 2.8
2016-Jun-21 15:24N 35°54' W 005°18'0 0.0
2016-Jun-21 14:33N 35°54' W 005°18'0 0.0
2016-Jun-21 13:32N 35°54' W 005°18'0 0.0
2016-Jun-21 12:32N 35°54' W 005°18'0 0.0
2016-Jun-21 11:31N 35°54' W 005°18'0 0.0
2016-Jun-21 10:33N 35°54' W 005°18'3 3.4
2016-Jun-21 09:33N 35°56' W 005°16'136 9.7
2016-Jun-20 19:31N 36°23' W 002°30'1210.2
2016-Jun-20 18:22N 36°25' W 002°16'  

Dump ship's entire track history